createdAt,value
2023-01-20T00:01:15.947Z,78.64
2023-01-20T00:05:24.179Z,78.40
2023-01-20T00:09:33.550Z,78.46
2023-01-20T00:13:41.920Z,78.19
2023-01-20T00:17:50.474Z,78.01
2023-01-20T00:21:58.162Z,78.08
2023-01-20T00:26:09.744Z,78.19
2023-01-20T00:30:19.211Z,78.16
2023-01-20T00:34:27.033Z,77.96
2023-01-20T00:38:34.836Z,78.04
2023-01-20T00:42:42.838Z,78.16
2023-01-20T00:46:50.796Z,78.27
2023-01-20T00:50:58.781Z,78.39
2023-01-20T00:55:07.606Z,78.03
2023-01-20T00:59:16.750Z,78.01
2023-01-20T01:03:25.584Z,78.19
2023-01-20T01:07:33.651Z,78.45
2023-01-20T01:11:41.811Z,78.43
2023-01-20T01:15:53.162Z,78.75
2023-01-20T01:20:01.463Z,78.83
2023-01-20T01:24:10.101Z,78.90
2023-01-20T01:28:18.042Z,78.93
2023-01-20T01:32:25.960Z,79.08
2023-01-20T01:36:34.053Z,79.14
2023-01-20T01:40:42.420Z,78.99
2023-01-20T01:45:20.593Z,79.23
2023-01-20T01:49:30.913Z,79.02
2023-01-20T01:53:43.828Z,78.87
2023-01-20T01:57:52.896Z,79.00
2023-01-20T02:02:01.202Z,79.14
2023-01-20T02:06:10.951Z,79.04
2023-01-20T02:10:18.571Z,79.32
2023-01-20T02:14:32.329Z,79.58
2023-01-20T02:18:48.778Z,79.46
2023-01-20T02:23:00.584Z,79.69
2023-01-20T02:27:13.810Z,79.51
2023-01-20T02:31:53.857Z,79.48
2023-01-20T02:36:04.591Z,79.41
2023-01-20T02:40:20.790Z,79.47
2023-01-20T02:44:40.217Z,79.52
2023-01-20T02:48:52.347Z,79.62
2023-01-20T02:53:02.024Z,79.71
2023-01-20T02:57:11.726Z,79.66
2023-01-20T03:01:22.494Z,79.97
2023-01-20T03:05:32.827Z,79.59
2023-01-20T03:09:44.754Z,79.95
2023-01-20T03:13:57.674Z,80.13
2023-01-20T03:18:06.702Z,79.99
2023-01-20T03:22:14.567Z,80.24
2023-01-20T03:26:24.338Z,80.06
2023-01-20T03:30:32.348Z,79.96
2023-01-20T03:34:43.518Z,80.06
2023-01-20T03:38:52.105Z,79.94
2023-01-20T03:43:06.128Z,79.84
2023-01-20T03:47:22.616Z,79.81
2023-01-20T03:51:34.551Z,79.84
2023-01-20T03:55:46.929Z,79.95
2023-01-20T03:59:55.943Z,79.76
2023-01-20T04:04:09.926Z,79.77
2023-01-20T04:08:19.561Z,79.63
2023-01-20T04:12:27.152Z,79.77
2023-01-20T04:16:35.363Z,80.08
2023-01-20T04:20:44.196Z,79.95
2023-01-20T04:24:55.861Z,79.40
2023-01-20T04:29:11.922Z,79.04
2023-01-20T04:33:21.271Z,79.29
2023-01-20T04:37:31.059Z,79.25
2023-01-20T04:41:39.358Z,79.16
2023-01-20T04:45:47.804Z,78.95
2023-01-20T04:49:55.222Z,78.97
2023-01-20T04:54:03.046Z,79.15
2023-01-20T04:58:11.742Z,79.62
2023-01-20T05:02:21.329Z,79.83
2023-01-20T05:06:29.729Z,79.89
2023-01-20T05:10:38.318Z,79.98
2023-01-20T05:14:46.824Z,80.36
2023-01-20T05:18:55.629Z,80.42
2023-01-20T05:23:03.211Z,80.45
2023-01-20T05:27:10.859Z,80.46
2023-01-20T05:31:21.453Z,80.20
2023-01-20T05:35:29.678Z,80.31
2023-01-20T05:39:37.264Z,80.18
2023-01-20T05:43:44.749Z,80.38
2023-01-20T05:47:58.028Z,80.27
2023-01-20T05:52:06.411Z,80.07
2023-01-20T05:56:17.091Z,80.15
2023-01-20T06:00:27.225Z,80.25
2023-01-20T06:04:35.070Z,80.25
2023-01-20T06:08:43.347Z,80.49
2023-01-20T06:12:56.450Z,80.61
2023-01-20T06:17:04.337Z,80.32
2023-01-20T06:21:12.402Z,80.61
2023-01-20T06:25:20.850Z,80.33
2023-01-20T06:29:28.405Z,80.25
2023-01-20T06:33:39.663Z,80.16
2023-01-20T06:37:47.824Z,79.87
2023-01-20T06:41:58.268Z,79.12
2023-01-20T06:46:08.545Z,79.38
2023-01-20T06:50:16.830Z,79.17
2023-01-20T06:54:27.601Z,79.36
2023-01-20T06:58:36.590Z,79.45
2023-01-20T07:02:44.501Z,79.61
2023-01-20T07:06:52.572Z,79.19
2023-01-20T07:11:00.447Z,79.31
2023-01-20T07:15:10.551Z,79.37
2023-01-20T07:19:17.903Z,79.36
2023-01-20T07:23:26.170Z,79.09
2023-01-20T07:27:34.222Z,79.65
2023-01-20T07:31:41.865Z,79.51
2023-01-20T07:35:54.822Z,79.59
2023-01-20T07:40:03.360Z,80.24
2023-01-20T07:44:12.348Z,80.52
2023-01-20T07:48:20.435Z,80.64
2023-01-20T07:52:28.083Z,80.74
2023-01-20T07:56:38.110Z,80.92
2023-01-20T08:00:49.202Z,80.87
2023-01-20T08:04:57.207Z,80.96
2023-01-20T08:09:05.747Z,81.20
2023-01-20T08:13:14.691Z,81.25
2023-01-20T08:17:22.660Z,81.48
2023-01-20T08:21:32.550Z,81.80
2023-01-20T08:25:40.686Z,81.77
2023-01-20T08:29:49.810Z,82.14
2023-01-20T08:33:58.544Z,82.07
2023-01-20T08:38:07.999Z,82.20
2023-01-20T08:42:16.898Z,82.23
2023-01-20T08:46:25.079Z,82.14
2023-01-20T08:50:34.485Z,82.06
2023-01-20T08:54:42.261Z,81.68
2023-01-20T08:58:52.404Z,81.44
2023-01-20T09:03:00.531Z,81.64
2023-01-20T09:07:11.591Z,81.32
2023-01-20T09:11:22.695Z,81.00
2023-01-20T09:15:30.635Z,80.94
2023-01-20T09:19:39.434Z,80.71
2023-01-20T09:23:48.387Z,80.87
2023-01-20T09:27:56.193Z,80.91
2023-01-20T09:32:03.864Z,80.88
2023-01-20T09:36:13.509Z,80.73
2023-01-20T09:40:43.305Z,80.77
2023-01-20T09:44:55.237Z,80.46
2023-01-20T09:49:28.096Z,80.19
2023-01-20T09:53:46.633Z,79.68
2023-01-20T09:57:59.534Z,79.04
2023-01-20T10:02:13.147Z,78.64
2023-01-20T10:06:26.920Z,78.40
2023-01-20T10:10:38.823Z,78.57
2023-01-20T10:14:49.210Z,78.37
2023-01-20T10:18:59.352Z,78.24
2023-01-20T10:23:11.926Z,77.93
2023-01-20T10:27:19.519Z,77.52
2023-01-20T10:31:30.131Z,77.47
2023-01-20T10:35:41.993Z,77.22
2023-01-20T10:39:53.689Z,77.21
2023-01-20T10:44:02.716Z,77.11
2023-01-20T10:48:20.001Z,76.41
2023-01-20T10:52:38.580Z,76.82
2023-01-20T10:56:54.062Z,77.44
2023-01-20T11:01:05.291Z,77.20
2023-01-20T11:05:20.195Z,77.06
2023-01-20T11:09:32.198Z,76.71
2023-01-20T11:13:39.799Z,76.26
2023-01-20T11:17:49.397Z,76.09
2023-01-20T11:21:57.346Z,75.96
2023-01-20T11:26:10.242Z,75.94
2023-01-20T11:30:28.353Z,75.97
2023-01-20T11:34:38.996Z,76.03
2023-01-20T11:38:48.105Z,76.54
2023-01-20T11:42:56.949Z,76.44
2023-01-20T11:47:23.253Z,76.09
2023-01-20T11:51:31.487Z,76.50
2023-01-20T11:55:48.666Z,76.33
2023-01-20T11:59:56.568Z,76.27
2023-01-20T12:04:23.476Z,76.29
2023-01-20T12:08:35.834Z,76.37
2023-01-20T12:12:48.427Z,76.13
2023-01-20T12:17:08.800Z,76.23
2023-01-20T12:21:17.877Z,76.29
2023-01-20T12:25:28.081Z,75.66
2023-01-20T12:29:44.755Z,75.88
2023-01-20T12:34:00.447Z,76.01
2023-01-20T12:38:10.259Z,76.19
2023-01-20T12:42:53.848Z,76.10
2023-01-20T12:47:08.714Z,76.17
2023-01-20T12:51:24.194Z,76.50
2023-01-20T12:55:41.901Z,75.95
2023-01-20T13:00:00.419Z,76.03
2023-01-20T13:04:53.468Z,75.93
2023-01-20T13:09:06.179Z,76.24
2023-01-20T13:13:24.472Z,76.23
2023-01-20T13:17:38.298Z,76.63
2023-01-20T13:21:56.522Z,76.48
2023-01-20T13:26:12.996Z,76.49
2023-01-20T13:30:44.512Z,76.13
2023-01-20T13:34:52.574Z,76.41
2023-01-20T13:39:27.317Z,76.24
2023-01-20T13:44:01.551Z,76.56
2023-01-20T13:48:25.562Z,76.92
2023-01-20T13:53:19.767Z,76.98
2023-01-20T13:57:47.761Z,77.15
2023-01-20T14:01:55.825Z,77.25
2023-01-20T14:06:06.275Z,77.50
2023-01-20T14:10:15.899Z,77.76
2023-01-20T14:14:25.847Z,77.76
2023-01-20T14:18:34.208Z,77.83
2023-01-20T14:22:42.330Z,77.62
2023-01-20T14:26:50.386Z,77.86
2023-01-20T14:31:19.626Z,78.07
2023-01-20T14:35:31.307Z,78.24
2023-01-20T14:39:40.560Z,78.58
2023-01-20T14:43:49.560Z,78.83
2023-01-20T14:47:57.854Z,78.87
2023-01-20T14:52:05.790Z,79.11
2023-01-20T14:56:21.556Z,79.10
2023-01-20T15:00:30.572Z,79.14
2023-01-20T15:04:41.495Z,79.43
2023-01-20T15:09:05.130Z,79.55
2023-01-20T15:13:27.728Z,79.72
2023-01-20T15:17:35.230Z,80.09
2023-01-20T15:21:44.509Z,80.32
2023-01-20T15:25:54.203Z,80.47
2023-01-20T15:30:24.357Z,80.56
2023-01-20T15:34:32.172Z,80.82
2023-01-20T15:38:40.321Z,81.05
2023-01-20T15:42:48.429Z,81.46
2023-01-20T15:46:57.658Z,81.59
2023-01-20T15:51:07.465Z,81.85
2023-01-20T15:55:20.136Z,82.00
2023-01-20T15:59:30.684Z,82.07
2023-01-20T16:03:38.996Z,82.24
2023-01-20T16:07:47.973Z,82.48
2023-01-20T16:11:55.809Z,82.36
2023-01-20T16:16:04.146Z,82.57
2023-01-20T16:20:21.544Z,82.92
2023-01-20T16:24:29.425Z,83.24
2023-01-20T16:28:38.120Z,83.26
2023-01-20T16:32:47.419Z,83.44
2023-01-20T16:36:55.143Z,83.75
2023-01-20T16:41:07.997Z,83.91
2023-01-20T16:45:31.567Z,84.02
2023-01-20T16:49:40.290Z,84.11
2023-01-20T16:53:48.639Z,84.18
2023-01-20T16:57:56.483Z,84.32
2023-01-20T17:02:04.550Z,84.49
2023-01-20T17:06:17.853Z,84.51
2023-01-20T17:10:26.576Z,84.52
2023-01-20T17:14:35.145Z,84.55
2023-01-20T17:18:45.946Z,84.59
2023-01-20T17:22:55.974Z,84.65
2023-01-20T17:27:03.992Z,84.84
2023-01-20T17:31:15.020Z,84.76
2023-01-20T17:35:22.752Z,84.74
2023-01-20T17:39:39.666Z,84.87
2023-01-20T17:43:51.594Z,84.91
2023-01-20T17:47:59.210Z,84.86
2023-01-20T17:52:07.218Z,84.87
2023-01-20T17:56:15.608Z,84.83
2023-01-20T18:00:24.753Z,84.95
2023-01-20T18:04:32.877Z,84.81
2023-01-20T18:08:41.216Z,85.00
2023-01-20T18:12:49.247Z,85.19
2023-01-20T18:16:57.654Z,85.14
2023-01-20T18:21:13.527Z,85.22
2023-01-20T18:25:21.493Z,85.20
2023-01-20T18:29:30.532Z,85.41
2023-01-20T18:33:40.026Z,85.32
2023-01-20T18:37:48.107Z,85.34
2023-01-20T18:41:56.190Z,85.40
2023-01-20T18:46:04.504Z,85.49
2023-01-20T18:50:13.996Z,85.58
2023-01-20T18:54:22.291Z,85.66
2023-01-20T18:58:31.883Z,85.49
2023-01-20T19:02:41.340Z,85.60
2023-01-20T19:06:49.487Z,85.40
2023-01-20T19:10:57.384Z,85.16
2023-01-20T19:15:05.151Z,85.12
2023-01-20T19:19:13.325Z,85.20
2023-01-20T19:23:21.630Z,85.23
2023-01-20T19:27:30.014Z,85.33
2023-01-20T19:31:40.284Z,85.40
2023-01-20T19:35:48.181Z,85.20
2023-01-20T19:39:57.000Z,85.54
2023-01-20T19:44:07.167Z,85.63
2023-01-20T19:48:14.932Z,85.64
2023-01-20T19:52:22.577Z,85.50
2023-01-20T19:56:32.584Z,85.65
2023-01-20T20:00:40.355Z,85.59
2023-01-20T20:04:48.644Z,85.62
2023-01-20T20:08:57.557Z,85.75
2023-01-20T20:13:05.892Z,85.99
2023-01-20T20:17:14.084Z,85.97
2023-01-20T20:21:22.614Z,86.09
2023-01-20T20:25:30.817Z,86.19
2023-01-20T20:29:38.656Z,86.27
2023-01-20T20:33:47.137Z,86.57
2023-01-20T20:37:55.003Z,86.71
2023-01-20T20:42:02.809Z,86.66
2023-01-20T20:46:11.161Z,86.83
2023-01-20T20:50:19.914Z,86.90
2023-01-20T20:54:28.509Z,86.93
2023-01-20T20:58:36.658Z,87.23
2023-01-20T21:02:44.587Z,87.37
2023-01-20T21:06:52.912Z,87.28
2023-01-20T21:11:03.437Z,87.11
2023-01-20T21:15:13.828Z,87.02
2023-01-20T21:19:21.838Z,86.96
2023-01-20T21:23:30.843Z,86.97
2023-01-20T21:27:39.625Z,87.01
2023-01-20T21:31:47.560Z,87.14
2023-01-20T21:35:55.684Z,86.93
2023-01-20T21:40:04.199Z,86.74
2023-01-20T21:44:32.518Z,86.64
2023-01-20T21:48:57.630Z,86.94
2023-01-20T21:53:06.031Z,87.06
2023-01-20T21:57:15.243Z,87.15
2023-01-20T22:01:22.867Z,87.37
2023-01-20T22:05:30.875Z,87.32
2023-01-20T22:09:38.908Z,87.28
2023-01-20T22:13:47.010Z,86.93
2023-01-20T22:17:55.984Z,86.57
2023-01-20T22:22:04.596Z,86.61
2023-01-20T22:26:12.589Z,86.37
2023-01-20T22:30:21.134Z,86.11
2023-01-20T22:34:29.447Z,86.48
2023-01-20T22:38:37.174Z,86.40
2023-01-20T22:42:46.014Z,86.96
2023-01-20T22:46:53.960Z,86.93
2023-01-20T22:51:08.349Z,87.11
2023-01-20T22:55:16.818Z,87.08
2023-01-20T22:59:24.021Z,86.98
2023-01-20T23:03:31.983Z,87.06
2023-01-20T23:07:40.815Z,87.05
2023-01-20T23:11:48.892Z,87.31
2023-01-20T23:15:56.970Z,87.56
2023-01-20T23:20:05.161Z,87.77
2023-01-20T23:24:12.876Z,88.05
2023-01-20T23:28:20.182Z,88.10
2023-01-20T23:32:28.145Z,88.34
2023-01-20T23:36:36.703Z,88.64
2023-01-20T23:40:44.204Z,88.66
2023-01-20T23:44:52.184Z,87.69
2023-01-20T23:49:00.288Z,87.55
2023-01-20T23:53:07.977Z,87.85
2023-01-20T23:57:15.681Z,87.92
